createdAt,value
2023-05-13T00:03:15.746Z,3.70
2023-05-13T00:08:20.488Z,3.90
2023-05-13T00:13:24.463Z,3.88
2023-05-13T00:23:30.254Z,3.90
2023-05-13T00:28:34.143Z,4.27
2023-05-13T00:33:36.675Z,3.92
2023-05-13T00:38:39.593Z,5.20
2023-05-13T00:43:43.498Z,4.70
2023-05-13T00:53:48.689Z,4.70
2023-05-13T00:58:52.518Z,4.28
2023-05-13T01:03:58.970Z,4.50
2023-05-13T01:09:04.662Z,4.75
2023-05-13T01:14:12.172Z,5.20
2023-05-13T01:19:23.083Z,5.25
2023-05-13T01:24:28.056Z,5.13
2023-05-13T01:29:31.053Z,4.60
2023-05-13T01:34:34.711Z,4.83
2023-05-13T01:39:39.604Z,5.25
2023-05-13T01:44:42.541Z,4.82
2023-05-13T01:49:45.413Z,6.07
2023-05-13T01:54:49.675Z,5.60
2023-05-13T01:59:52.991Z,6.18
2023-05-13T02:04:55.510Z,5.32
2023-05-13T02:09:59.937Z,5.10
2023-05-13T02:15:02.966Z,7.45
2023-05-13T02:20:06.321Z,6.60
2023-05-13T02:25:11.363Z,6.60
2023-05-13T02:30:18.104Z,6.10
2023-05-13T02:35:22.636Z,5.97
2023-05-13T02:40:27.279Z,5.90
2023-05-13T02:45:29.871Z,6.03
2023-05-13T02:50:32.607Z,5.90
2023-05-13T02:55:39.238Z,6.22
2023-05-13T03:00:43.230Z,7.10
2023-05-13T03:10:49.570Z,5.28
2023-05-13T03:20:55.416Z,5.78
2023-05-13T03:26:00.034Z,5.78
2023-05-13T03:31:05.580Z,6.50
2023-05-13T03:36:09.062Z,4.75
2023-05-13T03:41:13.197Z,6.43
2023-05-13T03:46:16.337Z,6.13
2023-05-13T03:51:19.250Z,5.57
2023-05-13T03:56:23.151Z,6.32
2023-05-13T04:01:26.212Z,6.55
2023-05-13T04:06:30.289Z,6.17
2023-05-13T04:11:34.212Z,6.55
2023-05-13T04:21:39.684Z,6.57
2023-05-13T04:26:44.107Z,6.27
2023-05-13T04:31:47.528Z,6.43
2023-05-13T04:36:51.675Z,6.00
2023-05-13T04:41:55.919Z,6.75
2023-05-13T04:46:58.683Z,6.60
2023-05-13T04:52:01.888Z,6.85
2023-05-13T04:57:06.044Z,6.93
2023-05-13T05:02:08.741Z,5.60
2023-05-13T05:07:11.874Z,7.32
2023-05-13T05:12:15.860Z,7.70
2023-05-13T05:22:21.346Z,6.18
2023-05-13T05:27:25.253Z,6.53
2023-05-13T05:37:30.580Z,6.32
2023-05-13T05:42:34.498Z,5.85
2023-05-13T05:52:39.698Z,5.07
2023-05-13T05:57:43.645Z,5.25
2023-05-13T06:07:48.692Z,4.88
2023-05-13T06:12:52.826Z,4.43
2023-05-13T06:17:56.248Z,5.40
2023-05-13T06:22:59.034Z,4.73
2023-05-13T06:28:06.151Z,4.75
2023-05-13T06:33:13.168Z,4.60
2023-05-13T06:38:17.734Z,4.78
2023-05-13T06:43:21.653Z,4.57
2023-05-13T06:53:26.768Z,4.95
2023-05-13T06:58:30.726Z,4.45
2023-05-13T07:03:33.327Z,4.75
2023-05-13T07:08:36.124Z,5.07
2023-05-13T07:13:40.318Z,4.93
2023-05-13T07:18:43.451Z,5.28
2023-05-13T07:23:46.043Z,5.40
2023-05-13T07:28:50.603Z,6.18
2023-05-13T07:33:53.625Z,5.78
2023-05-13T07:38:56.163Z,5.77
2023-05-13T07:44:00.026Z,5.10
2023-05-13T07:54:07.208Z,6.32
2023-05-13T07:59:11.310Z,5.30
2023-05-13T08:04:14.020Z,5.18
2023-05-13T08:09:16.720Z,5.63
2023-05-13T08:14:20.933Z,4.78
2023-05-13T08:19:23.455Z,5.35
2023-05-13T08:24:27.122Z,4.65
2023-05-13T08:29:31.335Z,5.47
2023-05-13T08:34:35.806Z,5.63
2023-05-13T08:39:38.960Z,5.45
2023-05-13T08:44:44.744Z,4.73
2023-05-13T08:49:47.604Z,5.07
2023-05-13T08:54:50.207Z,4.87
2023-05-13T08:59:54.119Z,5.03
2023-05-13T09:04:57.235Z,5.10
2023-05-13T09:09:59.835Z,4.93
2023-05-13T09:15:04.229Z,5.65
2023-05-13T09:20:08.509Z,6.10
2023-05-13T09:25:12.794Z,6.03
2023-05-13T09:30:18.738Z,5.55
2023-05-13T09:35:22.182Z,5.00
2023-05-13T09:40:27.160Z,5.53
2023-05-13T09:45:31.587Z,5.65
2023-05-13T09:50:34.299Z,5.75
2023-05-13T09:55:36.900Z,5.05
2023-05-13T10:00:42.287Z,4.70
2023-05-13T10:05:45.784Z,4.68
2023-05-13T10:10:49.556Z,4.70
2023-05-13T10:20:56.187Z,4.05
2023-05-13T10:26:00.795Z,4.60
2023-05-13T10:31:03.806Z,3.53
2023-05-13T10:36:18.471Z,3.50
2023-05-13T10:41:32.590Z,3.97
2023-05-13T10:46:35.264Z,3.80
2023-05-13T10:51:46.118Z,4.03
2023-05-13T10:56:57.143Z,3.45
2023-05-13T11:02:02.616Z,3.42
2023-05-13T11:07:17.616Z,2.80
2023-05-13T11:12:21.300Z,3.20
2023-05-13T11:17:23.974Z,3.83
2023-05-13T11:22:31.004Z,3.13
2023-05-13T11:27:40.653Z,3.30
2023-05-13T11:32:56.401Z,2.70
2023-05-13T11:38:01.835Z,3.10
2023-05-13T11:43:05.503Z,3.15
2023-05-13T11:53:12.594Z,3.03
2023-05-13T11:58:15.685Z,3.05
2023-05-13T12:03:18.452Z,3.42
2023-05-13T12:08:23.833Z,2.90
2023-05-13T12:13:28.637Z,2.78
2023-05-13T12:18:33.975Z,2.90
2023-05-13T12:23:41.647Z,2.30
2023-05-13T12:28:44.726Z,2.55
2023-05-13T12:33:49.844Z,2.22
2023-05-13T12:38:59.887Z,2.40
2023-05-13T12:44:04.633Z,4.75
2023-05-13T12:49:07.637Z,3.13
2023-05-13T12:54:12.280Z,2.85
2023-05-13T12:59:15.730Z,2.67
2023-05-13T13:04:19.091Z,2.60
2023-05-13T13:14:27.484Z,2.92
2023-05-13T13:19:31.531Z,2.92
2023-05-13T13:24:35.544Z,3.05
2023-05-13T13:29:40.289Z,2.78
2023-05-13T13:34:43.259Z,3.03
2023-05-13T13:39:46.226Z,4.17
2023-05-13T13:44:50.665Z,3.53
2023-05-13T13:49:53.276Z,3.30
2023-05-13T13:54:56.050Z,3.20
2023-05-13T13:59:59.901Z,2.92
2023-05-13T14:05:02.905Z,2.30
2023-05-13T14:10:05.818Z,2.70
2023-05-13T14:15:10.379Z,2.60
2023-05-13T14:20:13.354Z,2.63
2023-05-13T14:25:15.992Z,2.60
2023-05-13T14:30:20.170Z,2.27
2023-05-13T14:35:30.231Z,2.53
2023-05-13T14:40:34.417Z,2.60
2023-05-13T14:45:38.541Z,2.47
2023-05-13T14:50:42.047Z,2.72
2023-05-13T14:55:44.682Z,2.40
2023-05-13T15:00:49.124Z,1.97
2023-05-13T15:05:52.543Z,2.85
2023-05-13T15:10:55.141Z,2.65
2023-05-13T15:16:02.216Z,2.30
2023-05-13T15:21:07.288Z,2.72
2023-05-13T15:26:10.301Z,2.83
2023-05-13T15:31:14.896Z,3.00
2023-05-13T15:36:18.012Z,2.97
2023-05-13T15:41:21.043Z,2.75
2023-05-13T15:46:28.195Z,2.90
2023-05-13T15:51:32.142Z,2.88
2023-05-13T15:56:37.187Z,2.90
2023-05-13T16:01:41.883Z,3.40
2023-05-13T16:06:44.988Z,3.13
2023-05-13T16:11:48.071Z,2.88
2023-05-13T16:16:52.066Z,2.65
2023-05-13T16:21:54.726Z,2.53
2023-05-13T16:26:57.597Z,2.17
2023-05-13T16:32:01.824Z,2.28
2023-05-13T16:37:04.595Z,2.10
2023-05-13T16:42:07.402Z,2.13
2023-05-13T16:47:11.389Z,3.83
2023-05-13T16:52:14.532Z,2.00
2023-05-13T16:57:18.047Z,1.98
2023-05-13T17:02:22.484Z,2.20
2023-05-13T17:07:26.680Z,2.05
2023-05-13T17:12:29.946Z,1.70
2023-05-13T17:17:34.111Z,1.50
2023-05-13T17:22:36.692Z,1.70
2023-05-13T17:27:39.732Z,1.50
2023-05-13T17:32:43.699Z,1.73
2023-05-13T17:37:46.626Z,1.40
2023-05-13T17:42:50.930Z,1.67
2023-05-13T17:47:56.667Z,1.88
2023-05-13T17:52:59.257Z,1.80
2023-05-13T17:58:02.411Z,1.45
2023-05-13T18:03:06.479Z,1.70
2023-05-13T18:08:09.031Z,2.05
2023-05-13T18:13:11.866Z,1.67
2023-05-13T18:18:17.728Z,1.57
2023-05-13T18:23:22.416Z,1.80
2023-05-13T18:28:26.820Z,2.22
2023-05-13T18:33:30.658Z,2.45
2023-05-13T18:38:33.241Z,2.10
2023-05-13T18:43:36.135Z,2.28
2023-05-13T18:48:40.322Z,2.50
2023-05-13T18:53:43.192Z,5.40
2023-05-13T18:58:46.810Z,2.70
2023-05-13T19:03:51.734Z,3.97
2023-05-13T19:08:54.608Z,3.35
2023-05-13T19:13:58.217Z,3.60
2023-05-13T19:19:02.107Z,4.50
2023-05-13T19:24:04.967Z,2.80
2023-05-13T19:29:11.037Z,2.20
2023-05-13T19:34:15.583Z,1.75
2023-05-13T19:39:18.146Z,1.95
2023-05-13T19:44:20.702Z,1.73
2023-05-13T19:49:25.102Z,1.05
2023-05-13T19:54:27.946Z,1.10
2023-05-13T19:59:30.775Z,1.53
2023-05-13T20:04:35.035Z,1.20
2023-05-13T20:09:37.641Z,0.75
2023-05-13T20:14:44.929Z,1.00
2023-05-13T20:19:56.763Z,1.00
2023-05-13T20:24:59.349Z,1.75
2023-05-13T20:30:02.224Z,1.55
2023-05-13T20:35:08.754Z,1.77
2023-05-13T20:40:11.640Z,1.77
2023-05-13T20:45:14.425Z,1.65
2023-05-13T20:50:18.590Z,2.00
2023-05-13T20:55:21.853Z,2.40
2023-05-13T21:00:24.795Z,3.45
2023-05-13T21:05:32.248Z,3.30
2023-05-13T21:10:35.008Z,3.22
2023-05-13T21:15:37.575Z,2.65
2023-05-13T21:20:41.903Z,2.97
2023-05-13T21:25:44.704Z,3.08
2023-05-13T21:30:47.714Z,3.28
2023-05-13T21:35:51.795Z,4.50
2023-05-13T21:40:54.366Z,4.53
2023-05-13T21:45:57.317Z,5.03
2023-05-13T21:51:01.360Z,5.33
2023-05-13T21:56:04.671Z,5.80
2023-05-13T22:01:08.374Z,6.00
2023-05-13T22:06:12.728Z,5.18
2023-05-13T22:11:16.065Z,5.88
2023-05-13T22:16:19.192Z,5.47
2023-05-13T22:21:23.506Z,5.38
2023-05-13T22:26:27.412Z,5.90
2023-05-13T22:31:30.038Z,6.30
2023-05-13T22:36:34.312Z,5.72
2023-05-13T22:41:36.894Z,6.57
2023-05-13T22:46:39.915Z,7.18
2023-05-13T22:51:44.580Z,7.23
2023-05-13T22:56:47.993Z,7.22
2023-05-13T23:01:50.839Z,6.45
2023-05-13T23:06:54.971Z,6.85
2023-05-13T23:11:58.979Z,6.45
2023-05-13T23:17:01.546Z,7.25
2023-05-13T23:22:06.129Z,6.82
2023-05-13T23:27:09.268Z,6.55
2023-05-13T23:32:11.979Z,7.30
2023-05-13T23:37:16.830Z,6.60
2023-05-13T23:42:19.773Z,6.88
2023-05-13T23:47:23.490Z,6.20
2023-05-13T23:52:28.013Z,7.60
2023-05-13T23:57:31.112Z,6.57
